Time;durP1;ratioP1;P1;durP2;ratioP2;P2;SDS_P1;SDS_P2;PMS_P1;PMS_P2;Temp;Humidity;BMP_temperature;BMP_pressure;BME280_temperature;BME280_humidity;BME280_pressure;Samples;Min_cycle;Max_cycle;Signal;HPM_P1;HPM_P2
2020/12/19 00:00:08;;;;;;;70.03;32.58;;;;;;;5.25;95.99;100690.95;1806377;79;21601;-58
2020/12/19 00:02:37;;;;;;;72.12;34.85;;;;;;;5.28;95.81;100688.39;1806304;79;21066;-58
2020/12/19 00:05:05;;;;;;;66.30;32.42;;;;;;;5.30;95.68;100685.85;1806238;79;21490;-59
2020/12/19 00:07:33;;;;;;;74.12;35.03;;;;;;;5.31;95.46;100691.87;1806439;79;22039;-57
2020/12/19 00:10:01;;;;;;;69.50;33.92;;;;;;;5.28;95.21;100693.55;1806278;79;21097;-57
2020/12/19 00:12:29;;;;;;;67.47;33.13;;;;;;;5.29;95.27;100689.28;1806411;79;21101;-58
2020/12/19 00:14:56;;;;;;;69.07;32.50;;;;;;;5.29;95.09;100691.86;1806298;79;21045;-57
2020/12/19 00:17:24;;;;;;;69.10;34.15;;;;;;;5.31;94.92;100699.61;1806288;78;21118;-57
2020/12/19 00:19:52;;;;;;;71.90;34.25;;;;;;;5.27;94.67;100703.42;1806352;79;21239;-57
2020/12/19 00:22:21;;;;;;;69.20;32.98;;;;;;;5.27;94.72;100697.41;1806201;79;21101;-57
2020/12/19 00:24:49;;;;;;;73.33;34.65;;;;;;;5.24;94.58;100702.13;1806312;79;21569;-57
2020/12/19 00:27:16;;;;;;;68.00;32.88;;;;;;;5.18;94.50;100699.48;1806223;79;21053;-57
2020/12/19 00:29:45;;;;;;;69.12;33.95;;;;;;;5.13;94.43;100703.72;1806323;79;21042;-57
2020/12/19 00:32:12;;;;;;;71.33;33.98;;;;;;;5.05;94.43;100707.94;1806219;79;21194;-57
2020/12/19 00:34:41;;;;;;;73.85;35.60;;;;;;;4.98;94.51;100706.14;1802581;79;21132;-57
2020/12/19 00:37:09;;;;;;;69.97;34.00;;;;;;;4.96;94.74;100710.00;1806194;79;21093;-57
2020/12/19 00:39:37;;;;;;;66.20;32.42;;;;;;;4.95;94.88;100710.84;1806212;78;22061;-57
2020/12/19 00:42:04;;;;;;;68.52;32.88;;;;;;;4.94;94.80;100708.27;1806253;79;21046;-57
2020/12/19 00:44:32;;;;;;;72.35;32.35;;;;;;;4.91;94.79;100712.08;1806324;79;21327;-57
2020/12/19 00:46:59;;;;;;;66.17;32.53;;;;;;;4.86;94.85;100714.63;1806162;79;21112;-57
2020/12/19 00:49:27;;;;;;;69.22;32.85;;;;;;;4.84;95.09;100712.46;1806316;79;21764;-57
2020/12/19 00:51:54;;;;;;;69.03;31.25;;;;;;;4.86;95.15;100717.20;1806279;79;21478;-57
2020/12/19 00:54:22;;;;;;;66.77;33.18;;;;;;;4.84;95.14;100711.59;1806217;79;21153;-57
2020/12/19 00:56:51;;;;;;;68.28;32.53;;;;;;;4.82;95.11;100712.84;1806300;79;21530;-57
2020/12/19 00:59:19;;;;;;;64.87;32.88;;;;;;;4.80;95.09;100712.40;1806207;79;21112;-58
2020/12/19 01:01:47;;;;;;;65.28;33.23;;;;;;;4.79;95.23;100708.96;1806232;78;21053;-58
2020/12/19 01:04:14;;;;;;;63.92;31.90;;;;;;;4.76;95.29;100707.66;1806104;79;21633;-58
2020/12/19 01:06:42;;;;;;;65.52;33.02;;;;;;;4.77;95.32;100709.80;1806365;79;21860;-58
2020/12/19 01:09:09;;;;;;;67.03;34.30;;;;;;;4.74;95.38;100710.61;1806262;79;21541;-58
2020/12/19 01:11:38;;;;;;;72.03;34.83;;;;;;;4.72;95.32;100704.58;1806275;79;21921;-58
2020/12/19 01:14:05;;;;;;;73.67;34.45;;;;;;;4.70;95.40;100702.42;1806269;79;21062;-58
2020/12/19 01:16:33;;;;;;;66.60;31.75;;;;;;;4.66;95.42;100710.95;1806259;78;21101;-57
2020/12/19 01:19:04;;;;;;;70.85;34.03;;;;;;;4.63;95.42;100706.64;1806214;79;21590;-57
2020/12/19 01:21:33;;;;;;;65.75;33.78;;;;;;;4.59;95.45;100700.99;1806323;79;22287;-57
2020/12/19 01:24:00;;;;;;;68.37;32.88;;;;;;;4.60;95.58;100701.86;1806154;79;21554;-57
2020/12/19 01:26:28;;;;;;;69.03;34.25;;;;;;;4.60;95.71;100697.99;1806218;79;21616;-57
2020/12/19 01:28:56;;;;;;;71.07;32.35;;;;;;;4.59;95.75;100693.27;1806269;79;21038;-57
2020/12/19 01:31:24;;;;;;;66.20;32.40;;;;;;;4.57;95.65;100690.24;1806232;79;21494;-57
2020/12/19 01:33:52;;;;;;;68.85;32.60;;;;;;;4.55;95.69;100689.37;1806229;79;21191;-57
2020/12/19 01:36:22;;;;;;;63.87;32.05;;;;;;;4.55;95.65;100689.37;1806106;79;21991;-57
2020/12/19 01:38:51;;;;;;;62.30;30.88;;;;;;;4.56;95.71;100692.38;1806167;79;21137;-57
2020/12/19 01:41:21;;;;;;;63.02;31.50;;;;;;;4.60;95.85;100688.98;1817819;78;21107;-56
2020/12/19 01:43:55;;;;;;;63.52;29.77;;;;;;;4.61;95.71;100684.27;1821396;78;21116;-57
2020/12/19 01:46:57;;;;;;;57.88;27.90;;;;;;;4.61;95.47;100676.14;1821356;78;22268;-57
2020/12/19 01:49:30;;;;;;;62.50;31.15;;;;;;;4.59;95.11;100676.53;1821330;78;21495;-57
2020/12/19 01:52:00;;;;;;;66.42;31.20;;;;;;;4.58;95.21;100682.53;1821185;78;21497;-56
2020/12/19 01:54:29;;;;;;;63.58;29.80;;;;;;;4.57;95.27;100676.94;1821178;78;21171;-57
2020/12/19 01:56:58;;;;;;;66.15;32.00;;;;;;;4.59;95.34;100679.10;1821479;78;21053;-57
2020/12/19 01:59:28;;;;;;;65.65;31.50;;;;;;;4.61;95.20;100675.25;1821196;78;22206;-57
2020/12/19 02:01:57;;;;;;;67.35;33.18;;;;;;;4.62;95.18;100666.28;1821283;78;21069;-57
2020/12/19 02:04:25;;;;;;;67.47;32.30;;;;;;;4.61;95.16;100664.95;1791867;78;21108;-57
2020/12/19 02:06:55;;;;;;;70.32;32.53;;;;;;;4.61;95.10;100661.98;1821356;78;21176;-57
2020/12/19 02:09:26;;;;;;;66.25;33.13;;;;;;;4.59;94.93;100658.50;1821248;78;21057;-57
2020/12/19 02:11:53;;;;;;;64.53;32.20;;;;;;;4.53;94.86;100653.27;1821365;78;21728;-57
2020/12/19 02:14:21;;;;;;;70.47;33.53;;;;;;;4.50;94.86;100652.39;1821267;78;21100;-58
2020/12/19 02:16:58;;;;;;;65.75;33.30;;;;;;;4.50;95.03;100656.25;1821375;78;21140;-57
2020/12/19 02:19:27;;;;;;;59.88;30.82;;;;;;;4.48;94.99;100652.38;1821405;78;21060;-57
2020/12/19 02:21:55;;;;;;;62.70;31.27;;;;;;;4.47;95.05;100661.38;1821383;78;21045;-58
2020/12/19 02:24:22;;;;;;;65.40;31.17;;;;;;;4.48;95.01;100659.24;1821316;78;23575;-57
2020/12/19 02:26:52;;;;;;;66.22;31.35;;;;;;;4.52;95.01;100663.14;1821354;78;21838;-58
2020/12/19 02:29:20;;;;;;;60.23;30.77;;;;;;;4.58;95.01;100658.48;1821322;78;21159;-57
2020/12/19 02:31:48;;;;;;;59.63;29.95;;;;;;;4.64;94.98;100656.85;1821433;78;21184;-57
2020/12/19 02:34:16;;;;;;;63.85;30.50;;;;;;;4.70;94.73;100658.20;1821424;78;21049;-58
2020/12/19 02:36:44;;;;;;;58.50;29.20;;;;;;;4.72;94.61;100657.80;1821407;78;21202;-57
2020/12/19 02:39:12;;;;;;;60.65;29.65;;;;;;;4.76;94.56;100652.27;1821132;78;21987;-57
2020/12/19 02:41:43;;;;;;;63.20;30.85;;;;;;;4.78;94.29;100651.85;1809125;78;21137;-57
2020/12/19 02:44:19;;;;;;;50.33;27.70;;;;;;;4.81;94.13;100660.02;1806241;79;21097;-57
2020/12/19 02:46:48;;;;;;;63.02;30.52;;;;;;;4.85;94.20;100657.93;1806372;79;21463;-57
2020/12/19 02:49:16;;;;;;;64.95;30.77;;;;;;;4.89;94.08;100652.80;1806153;79;21366;-58
2020/12/19 02:51:44;;;;;;;67.30;33.05;;;;;;;4.88;93.98;100656.23;1806137;79;21144;-57
2020/12/19 02:54:11;;;;;;;66.15;31.77;;;;;;;4.92;94.00;100658.44;1806412;79;21129;-57
2020/12/19 02:56:40;;;;;;;62.27;30.27;;;;;;;4.94;93.89;100658.88;1806486;79;21582;-57
2020/12/19 02:59:07;;;;;;;62.67;31.30;;;;;;;4.98;93.68;100653.31;1806301;79;21049;-57
2020/12/19 03:01:35;;;;;;;63.78;30.90;;;;;;;4.98;93.51;100655.47;1806299;79;21389;-57
2020/12/19 03:04:02;;;;;;;64.22;30.90;;;;;;;4.99;93.35;100653.78;1806293;79;21581;-57
2020/12/19 03:06:33;;;;;;;64.12;32.20;;;;;;;4.98;93.32;100654.60;1806178;79;21124;-57
2020/12/19 03:09:02;;;;;;;56.55;28.80;;;;;;;4.97;93.23;100655.45;1806284;79;21137;-57
2020/12/19 03:11:30;;;;;;;61.75;30.60;;;;;;;4.98;93.03;100653.31;1806310;78;21183;-58
2020/12/19 03:13:57;;;;;;;62.70;29.72;;;;;;;4.97;92.97;100653.74;1806486;79;22039;-57
2020/12/19 03:16:25;;;;;;;58.63;30.88;;;;;;;4.97;92.92;100653.74;1806274;78;21125;-58
2020/12/19 03:18:52;;;;;;;61.25;31.07;;;;;;;4.97;92.83;100659.32;1806324;79;21130;-57
2020/12/19 03:21:20;;;;;;;59.38;29.35;;;;;;;4.96;92.67;100658.89;1784322;79;21089;-57
2020/12/19 03:23:48;;;;;;;60.05;29.75;;;;;;;4.94;92.66;100659.30;1806488;79;21558;-57
2020/12/19 03:26:16;;;;;;;60.23;30.23;;;;;;;4.90;92.51;100663.97;1806356;79;21139;-57
2020/12/19 03:28:43;;;;;;;57.90;30.00;;;;;;;4.84;92.50;100658.78;1806328;79;21077;-57
2020/12/19 03:31:11;;;;;;;64.22;32.60;;;;;;;4.72;92.57;100660.37;1806329;79;21114;-57
2020/12/19 03:33:38;;;;;;;61.63;28.67;;;;;;;4.65;92.84;100652.56;1806401;79;21674;-57
2020/12/19 03:36:06;;;;;;;64.37;31.17;;;;;;;4.63;93.01;100655.13;1806402;79;21030;-57
2020/12/19 03:38:34;;;;;;;64.82;32.25;;;;;;;4.62;93.09;100649.54;1806278;78;21184;-57
2020/12/19 03:41:02;;;;;;;65.72;31.60;;;;;;;4.65;93.23;100648.70;1812223;77;21136;-57
2020/12/19 03:43:30;;;;;;;65.17;31.20;;;;;;;4.67;93.37;100645.28;1821449;78;21615;-57
2020/12/19 03:45:57;;;;;;;62.03;28.55;;;;;;;4.71;93.35;100645.77;1821515;78;21494;-58
2020/12/19 03:48:25;;;;;;;63.17;30.65;;;;;;;4.76;93.16;100650.09;1821284;78;22085;-57
2020/12/19 03:50:52;;;;;;;63.38;30.72;;;;;;;4.75;93.00;100646.64;1821465;78;23586;-57
2020/12/19 03:53:20;;;;;;;64.75;29.37;;;;;;;4.76;93.06;100648.80;1821413;78;21135;-59
2020/12/19 03:55:47;;;;;;;68.42;30.37;;;;;;;4.79;93.09;100647.13;1821547;78;21470;-57
2020/12/19 03:58:15;;;;;;;65.30;29.95;;;;;;;4.81;93.14;100650.58;1821482;78;21057;-57
2020/12/19 04:00:43;;;;;;;62.00;30.08;;;;;;;4.83;93.02;100642.44;1821508;78;21096;-57
2020/12/19 04:03:10;;;;;;;61.02;30.12;;;;;;;4.85;92.95;100643.77;1821328;78;21343;-58
2020/12/19 04:05:41;;;;;;;61.45;30.77;;;;;;;4.88;92.90;100643.78;1821399;78;21156;-58
2020/12/19 04:08:08;;;;;;;62.38;29.75;;;;;;;4.91;92.80;100642.11;1821469;78;21124;-58
2020/12/19 04:10:36;;;;;;;61.53;30.20;;;;;;;4.92;92.73;100641.69;1821397;78;21947;-57
2020/12/19 04:13:03;;;;;;;65.25;31.20;;;;;;;4.92;92.59;100642.97;1821496;78;21045;-57
2020/12/19 04:15:31;;;;;;;62.48;31.87;;;;;;;4.93;92.48;100643.41;1821426;78;23589;-59
2020/12/19 04:17:59;;;;;;;64.75;31.42;;;;;;;4.91;92.43;100641.22;1821381;78;21994;-56
2020/12/19 04:20:26;;;;;;;63.35;31.20;;;;;;;4.90;92.31;100644.22;1821330;78;21482;-57
2020/12/19 04:22:53;;;;;;;61.65;31.10;;;;;;;4.88;92.31;100642.48;1821498;78;21065;-57
2020/12/19 04:25:21;;;;;;;63.85;31.05;;;;;;;4.87;92.21;100648.50;1821519;78;21092;-58
2020/12/19 04:27:49;;;;;;;59.27;30.02;;;;;;;4.83;92.10;100642.44;1821467;78;23670;-58
2020/12/19 04:30:18;;;;;;;65.97;32.10;;;;;;;4.80;92.14;100640.27;1821454;78;21065;-58
2020/12/19 04:32:48;;;;;;;60.95;30.65;;;;;;;4.81;92.29;100641.98;1798643;78;21084;-58
2020/12/19 04:35:16;;;;;;;61.90;29.60;;;;;;;4.82;92.17;100642.42;1818356;78;21184;-59
2020/12/19 04:37:43;;;;;;;62.85;30.77;;;;;;;4.81;91.99;100638.98;1820740;78;21136;-58
2020/12/19 04:40:11;;;;;;;61.50;30.25;;;;;;;4.79;91.94;100643.70;1821463;78;22322;-58
2020/12/19 04:42:41;;;;;;;61.63;30.30;;;;;;;4.78;91.95;100642.83;1806660;78;21157;-58
2020/12/19 04:45:09;;;;;;;61.40;30.92;;;;;;;4.78;92.02;100652.27;1759024;79;21143;-60
2020/12/19 04:47:37;;;;;;;55.92;28.80;;;;;;;4.77;91.94;100646.27;1806229;79;21046;-58
2020/12/19 04:50:04;;;;;;;64.58;30.72;;;;;;;4.75;91.94;100646.64;1806280;79;21053;-58
2020/12/19 04:52:31;;;;;;;65.90;31.57;;;;;;;4.75;92.02;100654.37;1806233;78;21601;-58
2020/12/19 04:54:59;;;;;;;59.20;30.52;;;;;;;4.74;91.80;100656.09;1806238;79;21141;-58
2020/12/19 04:57:27;;;;;;;58.98;30.62;;;;;;;4.67;91.69;100655.58;1783953;79;21038;-57
2020/12/19 04:59:54;;;;;;;56.60;28.57;;;;;;;4.60;91.78;100658.07;1806252;79;21060;-57
2020/12/19 05:02:23;;;;;;;58.58;31.00;;;;;;;4.55;92.01;100658.05;1806275;79;21105;-59
2020/12/19 05:04:50;;;;;;;64.03;30.97;;;;;;;4.54;92.12;100661.89;1806392;79;22166;-58
2020/12/19 05:07:19;;;;;;;65.10;32.88;;;;;;;4.53;92.36;100663.58;1802935;79;21104;-58
2020/12/19 05:09:47;;;;;;;61.35;30.65;;;;;;;4.56;92.75;100661.05;1806236;79;21097;-58
2020/12/19 05:12:15;;;;;;;64.07;31.48;;;;;;;4.61;92.61;100665.84;1806273;79;21486;-58
2020/12/19 05:14:43;;;;;;;60.25;30.17;;;;;;;4.60;92.38;100670.95;1806233;79;21038;-58
2020/12/19 05:17:12;;;;;;;64.30;31.25;;;;;;;4.57;92.42;100673.08;1806282;79;23421;-58
2020/12/19 05:19:39;;;;;;;66.07;32.58;;;;;;;4.58;92.62;100668.36;1806137;79;21136;-58
2020/12/19 05:22:07;;;;;;;63.00;30.92;;;;;;;4.63;92.68;100673.16;1806223;79;21467;-59
2020/12/19 05:24:35;;;;;;;60.88;30.72;;;;;;;4.63;92.69;100669.30;1806198;79;22026;-58
2020/12/19 05:27:04;;;;;;;77.15;37.25;;;;;;;4.63;92.65;100664.14;1806264;79;21577;-59
2020/12/19 05:29:33;;;;;;;76.15;36.48;;;;;;;4.64;92.72;100665.00;1806026;79;23528;-59
2020/12/19 05:32:01;;;;;;;79.55;38.05;;;;;;;4.64;92.57;100665.00;1806193;79;21089;-59
2020/12/19 05:34:28;;;;;;;79.45;37.55;;;;;;;4.62;92.50;100667.56;1806202;79;21570;-59
2020/12/19 05:36:57;;;;;;;74.10;34.75;;;;;;;4.61;92.65;100668.42;1806208;79;22026;-59
2020/12/19 05:39:25;;;;;;;72.42;34.80;;;;;;;4.62;92.73;100664.98;1806195;79;21053;-58
2020/12/19 05:41:52;;;;;;;81.40;35.80;;;;;;;4.65;92.73;100668.88;1806107;78;21197;-58
2020/12/19 05:44:21;;;;;;;81.80;36.65;;;;;;;4.65;92.68;100666.30;1806283;79;21610;-58
2020/12/19 05:46:49;;;;;;;77.05;35.38;;;;;;;4.64;92.62;100667.16;1806179;79;21134;-58
2020/12/19 05:49:17;;;;;;;66.05;32.98;;;;;;;4.64;92.60;100671.44;1806233;79;21058;-58
2020/12/19 05:51:45;;;;;;;70.62;32.45;;;;;;;4.59;92.55;100671.37;1805944;79;21049;-58
2020/12/19 05:54:14;;;;;;;69.95;32.35;;;;;;;4.57;92.67;100670.50;1806323;79;22187;-58
2020/12/19 05:56:50;;;;;;;70.87;34.15;;;;;;;4.58;92.73;100668.79;1806033;79;21529;-58
2020/12/19 05:59:18;;;;;;;65.87;31.93;;;;;;;4.60;92.72;100671.81;1806446;79;21062;-58
2020/12/19 06:01:48;;;;;;;72.95;33.58;;;;;;;4.58;92.59;100665.79;1806265;79;21489;-57
2020/12/19 06:04:17;;;;;;;82.22;37.40;;;;;;;4.58;92.60;100674.80;1806410;79;21561;-58
2020/12/19 06:06:46;;;;;;;71.42;34.27;;;;;;;4.59;92.63;100679.10;1806208;79;21353;-58
2020/12/19 06:09:14;;;;;;;72.00;34.13;;;;;;;4.60;92.55;100678.25;1806280;79;21073;-58
2020/12/19 06:11:53;;;;;;;75.20;36.68;;;;;;;4.59;92.51;100679.53;1806153;79;21100;-58
2020/12/19 06:14:22;;;;;;;73.45;34.63;;;;;;;4.54;92.22;100683.36;1806231;79;21125;-58
2020/12/19 06:16:52;;;;;;;68.70;32.90;;;;;;;4.45;92.24;100680.22;1806127;79;21164;-58
2020/12/19 06:19:23;;;;;;;74.00;34.67;;;;;;;4.40;92.21;100679.75;1806292;79;22053;-58
2020/12/19 06:21:54;;;;;;;75.05;35.17;;;;;;;4.31;92.26;100680.50;1806021;79;21140;-59
2020/12/19 06:24:44;;;;;;;81.90;35.65;;;;;;;4.26;92.41;100683.86;1806224;79;21113;-59
2020/12/19 06:27:27;;;;;;;81.08;33.55;;;;;;;4.24;92.53;100684.27;1806228;79;21085;-58
2020/12/19 06:29:54;;;;;;;73.60;33.15;;;;;;;4.21;92.85;100686.36;1806255;79;21086;-58
2020/12/19 06:32:25;;;;;;;79.55;32.83;;;;;;;4.20;92.92;100685.05;1806198;79;21542;-58
2020/12/19 06:35:08;;;;;;;80.22;35.75;;;;;;;4.16;92.88;100687.60;1805981;79;21140;-58
2020/12/19 06:37:43;;;;;;;92.37;38.50;;;;;;;4.10;92.95;100687.94;1806056;79;32761;-58
2020/12/19 06:40:15;;;;;;;96.40;42.30;;;;;;;4.05;93.22;100694.30;1806337;79;21133;-58
2020/12/19 06:42:46;;;;;;;77.90;35.95;;;;;;;4.04;93.35;100696.43;1805794;78;21105;-58
2020/12/19 06:45:22;;;;;;;70.57;32.65;;;;;;;4.04;93.71;100695.56;1806253;79;22596;-58
2020/12/19 06:47:50;;;;;;;70.50;32.95;;;;;;;4.04;93.65;100693.86;1800674;79;21887;-58
2020/12/19 06:50:19;;;;;;;67.12;32.98;;;;;;;4.03;93.74;100692.13;1806229;79;21033;-58
2020/12/19 06:52:56;;;;;;;70.65;33.20;;;;;;;4.06;94.03;100691.30;1805998;79;21609;-58
2020/12/19 06:55:28;;;;;;;74.07;33.35;;;;;;;4.06;93.96;100697.31;1806300;79;21467;-58
2020/12/19 06:57:57;;;;;;;72.72;33.75;;;;;;;4.05;94.05;100698.16;1806188;79;22197;-58
2020/12/19 07:00:30;;;;;;;70.97;32.80;;;;;;;4.06;94.12;100695.16;1806193;79;21529;-58
2020/12/19 07:03:03;;;;;;;73.10;31.65;;;;;;;4.05;94.15;100695.58;1805650;79;21050;-58
2020/12/19 07:05:34;;;;;;;73.55;33.05;;;;;;;4.05;94.23;100700.73;1806282;79;21154;-58
2020/12/19 07:08:19;;;;;;;74.67;31.80;;;;;;;4.01;94.21;100702.83;1806217;79;21097;-57
2020/12/19 07:10:48;;;;;;;75.17;31.87;;;;;;;4.00;94.54;100708.80;1806166;79;21353;-59
2020/12/19 07:13:16;;;;;;;76.97;34.45;;;;;;;4.02;94.61;100712.28;1806215;79;21085;-59
2020/12/19 07:15:48;;;;;;;81.97;35.25;;;;;;;4.06;94.94;100713.17;1806186;78;21499;-59
2020/12/19 07:18:26;;;;;;;82.00;35.33;;;;;;;4.13;95.23;100708.13;1806232;79;21029;-58
2020/12/19 07:21:05;;;;;;;85.47;37.28;;;;;;;4.22;95.32;100707.39;1806260;79;21157;-58
2020/12/19 07:23:34;;;;;;;84.40;37.08;;;;;;;4.29;95.24;100703.19;1806127;79;21400;-57
2020/12/19 07:26:03;;;;;;;74.77;34.43;;;;;;;4.36;95.13;100704.57;1805949;79;21136;-58
2020/12/19 07:28:30;;;;;;;75.95;34.92;;;;;;;4.41;94.93;100696.92;1806251;79;21554;-57
2020/12/19 07:30:58;;;;;;;74.70;33.50;;;;;;;4.42;94.85;100696.07;1806215;79;21538;-58
2020/12/19 07:33:26;;;;;;;80.72;34.38;;;;;;;4.45;94.89;100697.38;1806202;79;21700;-58
2020/12/19 07:35:54;;;;;;;73.83;32.48;;;;;;;4.48;94.81;100693.58;1806121;79;21186;-58
2020/12/19 07:38:22;;;;;;;65.65;30.32;;;;;;;4.51;94.64;100693.60;1806200;79;21105;-58
2020/12/19 07:40:54;;;;;;;68.72;30.48;;;;;;;4.51;94.43;100696.17;1806256;79;21594;-57
2020/12/19 07:43:22;;;;;;;71.87;32.88;;;;;;;4.53;94.60;100700.91;1819057;78;21100;-58
2020/12/19 07:45:57;;;;;;;75.37;33.15;;;;;;;4.55;94.69;100697.95;1821455;78;21108;-57
2020/12/19 07:48:24;;;;;;;66.82;33.33;;;;;;;4.57;94.59;100698.83;1821544;78;21342;-58
2020/12/19 07:50:52;;;;;;;71.75;34.05;;;;;;;4.59;94.52;100696.27;1821227;78;21092;-59
2020/12/19 07:53:19;;;;;;;64.92;30.65;;;;;;;4.61;94.48;100690.70;1821552;78;21557;-58
2020/12/19 07:55:50;;;;;;;64.15;30.82;;;;;;;4.66;94.66;100692.92;1821413;78;21044;-59
2020/12/19 07:58:18;;;;;;;72.85;32.85;;;;;;;4.71;94.63;100686.98;1821626;78;21547;-58
2020/12/19 08:00:46;;;;;;;70.10;32.23;;;;;;;4.78;94.47;100692.20;1821502;78;22150;-59
2020/12/19 08:03:14;;;;;;;66.02;31.77;;;;;;;4.81;94.42;100687.07;1821475;78;21084;-58
2020/12/19 08:05:42;;;;;;;64.58;31.45;;;;;;;4.85;94.38;100687.14;1821454;78;21564;-58
2020/12/19 08:08:11;;;;;;;64.03;29.98;;;;;;;4.87;94.36;100685.43;1821506;78;21140;-58
2020/12/19 08:10:39;;;;;;;65.08;30.02;;;;;;;4.92;94.29;100686.78;1821519;78;21576;-59
2020/12/19 08:13:11;;;;;;;63.63;29.92;;;;;;;4.97;94.26;100687.67;1821467;78;22384;-59
2020/12/19 08:15:38;;;;;;;58.50;28.75;;;;;;;5.03;94.15;100685.16;1821403;78;21053;-59
2020/12/19 08:18:07;;;;;;;58.70;29.18;;;;;;;5.10;94.06;100685.66;1821576;78;21484;-58
2020/12/19 08:20:36;;;;;;;57.58;29.42;;;;;;;5.16;94.07;100684.44;1821414;78;21188;-58
2020/12/19 08:23:06;;;;;;;51.30;26.07;;;;;;;5.22;93.84;100688.36;1821489;78;21055;-59
2020/12/19 08:25:35;;;;;;;59.30;28.10;;;;;;;5.25;93.61;100687.09;1821494;78;22358;-58
2020/12/19 08:28:03;;;;;;;59.98;29.07;;;;;;;5.23;93.42;100682.35;1821373;78;21092;-58
2020/12/19 08:30:33;;;;;;;47.13;24.57;;;;;;;5.24;93.34;100686.66;1807691;78;21132;-58
2020/12/19 08:33:07;;;;;;;54.30;27.95;;;;;;;5.21;93.28;100686.64;1808793;78;21136;-58
2020/12/19 08:35:44;;;;;;;49.20;26.48;;;;;;;5.18;93.31;100688.31;1821540;78;21042;-58
2020/12/19 08:38:26;;;;;;;50.12;25.50;;;;;;;5.20;93.40;100693.05;1821629;78;21362;-59
2020/12/19 08:41:02;;;;;;;49.80;25.05;;;;;;;5.20;93.23;100692.61;1821189;78;21077;-58
2020/12/19 08:43:34;;;;;;;44.38;24.07;;;;;;;5.21;93.14;100693.48;1821064;78;21037;-58
2020/12/19 08:46:12;;;;;;;53.58;28.32;;;;;;;5.24;93.11;100693.09;1821697;78;21121;-59
2020/12/19 08:48:41;;;;;;;60.92;29.55;;;;;;;5.24;92.98;100691.81;1821515;78;21572;-59
2020/12/19 08:51:18;;;;;;;48.75;26.60;;;;;;;5.27;92.98;100691.83;1821317;78;21335;-58
2020/12/19 08:53:45;;;;;;;45.43;24.18;;;;;;;5.31;92.78;100699.61;1821449;78;21799;-58
2020/12/19 08:56:18;;;;;;;48.40;25.40;;;;;;;5.26;92.68;100695.25;1821475;78;21052;-58
2020/12/19 08:58:56;;;;;;;50.20;25.12;;;;;;;5.31;92.80;100698.31;1821385;78;21052;-58
2020/12/19 09:01:24;;;;;;;44.73;24.25;;;;;;;5.33;92.93;100697.47;1821468;78;21041;-58
2020/12/19 09:03:54;;;;;;;48.85;25.40;;;;;;;5.33;92.33;100694.03;1821408;78;21186;-58
2020/12/19 09:06:21;;;;;;;43.50;24.07;;;;;;;5.23;92.21;100697.82;1821365;78;21131;-58
2020/12/19 09:08:49;;;;;;;48.60;26.02;;;;;;;5.20;92.54;100691.33;1821460;78;21594;-58
2020/12/19 09:11:31;;;;;;;43.13;24.70;;;;;;;5.17;92.61;100697.75;1821513;78;21049;-58
2020/12/19 09:14:10;;;;;;;43.38;23.70;;;;;;;5.14;92.63;100692.59;1821523;78;21064;-58
2020/12/19 09:16:53;;;;;;;49.18;25.92;;;;;;;5.09;92.57;100691.67;1821430;78;22121;-59
2020/12/19 09:19:20;;;;;;;44.03;23.95;;;;;;;5.05;92.57;100692.47;1821437;78;21565;-56
2020/12/19 09:21:56;;;;;;;55.17;27.82;;;;;;;5.01;92.63;100698.46;1821172;78;21132;-59
2020/12/19 09:24:23;;;;;;;50.38;26.45;;;;;;;5.00;92.78;100695.02;1821521;78;21120;-59
2020/12/19 09:26:52;;;;;;;44.63;24.18;;;;;;;4.98;92.75;100688.97;1821368;78;21573;-58
2020/12/19 09:29:19;;;;;;;49.83;28.02;;;;;;;4.94;92.46;100692.80;1821450;78;23560;-57
2020/12/19 09:31:47;;;;;;;46.58;25.45;;;;;;;4.86;92.46;100695.30;1821276;78;21913;-58
2020/12/19 09:34:15;;;;;;;39.33;22.40;;;;;;;4.82;92.66;100692.23;1821439;78;21498;-57
2020/12/19 09:36:42;;;;;;;42.23;23.73;;;;;;;4.82;92.72;100698.67;1821382;78;21157;-59
2020/12/19 09:39:10;;;;;;;43.08;21.73;;;;;;;4.81;92.90;100699.95;1821205;78;21124;-57
2020/12/19 09:41:40;;;;;;;35.55;20.50;;;;;;;4.83;92.95;100694.38;1821316;78;21189;-58
2020/12/19 09:44:08;;;;;;;41.68;21.07;;;;;;;4.79;93.00;100690.06;1784834;79;21097;-58
2020/12/19 09:46:36;;;;;;;49.75;25.45;;;;;;;4.81;93.20;100692.22;1814823;78;21061;-58
2020/12/19 09:49:04;;;;;;;44.90;23.90;;;;;;;4.86;93.34;100693.15;1814763;79;21569;-57
2020/12/19 09:51:32;;;;;;;46.33;25.40;;;;;;;4.91;93.48;100697.52;1814734;79;21097;-57
2020/12/19 09:53:59;;;;;;;57.43;28.77;;;;;;;4.97;93.60;100697.98;1814685;79;21585;-57
2020/12/19 09:56:27;;;;;;;49.77;25.77;;;;;;;5.06;93.77;100694.20;1814745;79;21494;-57
2020/12/19 09:58:54;;;;;;;49.27;25.48;;;;;;;5.11;93.49;100687.38;1814761;79;21530;-57
2020/12/19 10:01:22;;;;;;;44.60;23.73;;;;;;;5.14;93.53;100692.59;1814817;79;21597;-57
2020/12/19 10:03:50;;;;;;;44.85;23.55;;;;;;;5.16;93.41;100690.87;1814734;79;21620;-58
2020/12/19 10:06:17;;;;;;;47.62;25.48;;;;;;;5.18;93.45;100689.17;1814590;79;23514;-57
2020/12/19 10:08:45;;;;;;;44.58;23.65;;;;;;;5.26;93.52;100687.52;1814599;79;21924;-59
2020/12/19 10:11:13;;;;;;;56.40;27.50;;;;;;;5.35;93.59;100684.16;1814793;79;21109;-57
2020/12/19 10:13:40;;;;;;;48.87;26.30;;;;;;;5.47;93.57;100683.41;1813787;79;21128;-57
2020/12/19 10:16:08;;;;;;;49.50;26.80;;;;;;;5.57;93.52;100681.33;1814721;79;21100;-57
2020/12/19 10:18:35;;;;;;;51.37;26.85;;;;;;;5.67;93.32;100673.22;1814796;79;23594;-58
2020/12/19 10:21:07;;;;;;;46.75;24.70;;;;;;;5.72;93.13;100673.70;1814623;79;21125;-59
2020/12/19 10:23:35;;;;;;;50.80;25.88;;;;;;;5.72;92.78;100665.09;1814479;79;21140;-59
2020/12/19 10:26:02;;;;;;;52.58;27.90;;;;;;;5.76;92.60;100670.73;1814347;79;21105;-58
2020/12/19 10:28:30;;;;;;;50.65;25.90;;;;;;;5.78;92.74;100671.16;1814801;79;21128;-58
2020/12/19 10:30:58;;;;;;;52.30;27.65;;;;;;;5.81;92.76;100660.84;1814694;79;21346;-58
2020/12/19 10:33:26;;;;;;;48.85;26.10;;;;;;;5.87;92.76;100658.74;1814789;79;21510;-58
2020/12/19 10:35:54;;;;;;;55.08;27.05;;;;;;;5.91;92.58;100650.21;1814712;79;21029;-58
2020/12/19 10:38:22;;;;;;;47.45;25.62;;;;;;;5.92;92.52;100643.33;1814765;78;21108;-58
2020/12/19 10:40:51;;;;;;;59.40;29.23;;;;;;;5.92;92.35;100642.04;1813009;79;21112;-58
2020/12/19 10:43:19;;;;;;;51.83;27.17;;;;;;;5.91;92.14;100645.48;1818594;78;21421;-58
2020/12/19 10:45:47;;;;;;;49.42;27.22;;;;;;;5.90;92.13;100646.30;1823965;78;21072;-60
2020/12/19 10:48:14;;;;;;;40.73;22.82;;;;;;;5.89;92.07;100643.27;1823941;78;21501;-58
2020/12/19 10:50:43;;;;;;;42.23;24.10;;;;;;;5.86;91.91;100640.25;1823961;78;21109;-58
2020/12/19 10:53:12;;;;;;;44.23;23.92;;;;;;;5.79;91.56;100641.92;1823875;78;21128;-58
2020/12/19 10:55:39;;;;;;;35.95;21.62;;;;;;;5.71;91.44;100644.88;1823971;78;21404;-58
2020/12/19 10:58:06;;;;;;;35.25;21.82;;;;;;;5.61;91.15;100647.41;1823920;78;21053;-58
2020/12/19 11:00:34;;;;;;;40.52;22.27;;;;;;;5.46;91.15;100648.16;1823909;78;21474;-57
2020/12/19 11:03:02;;;;;;;41.88;23.52;;;;;;;5.33;91.56;100648.91;1823902;78;21088;-57
2020/12/19 11:05:29;;;;;;;45.52;24.37;;;;;;;5.31;91.96;100644.17;1823890;78;21135;-57
2020/12/19 11:07:57;;;;;;;39.40;22.80;;;;;;;5.34;92.01;100648.05;1823922;78;21449;-57
2020/12/19 11:10:25;;;;;;;40.75;23.60;;;;;;;5.29;91.95;100639.88;1823852;78;21513;-57
2020/12/19 11:12:52;;;;;;;34.90;21.73;;;;;;;5.25;92.12;100643.69;1824010;78;21559;-58
2020/12/19 11:15:19;;;;;;;38.83;22.65;;;;;;;5.23;92.30;100654.00;1824098;78;21664;-57
2020/12/19 11:17:47;;;;;;;41.75;22.37;;;;;;;5.27;92.37;100657.45;1824155;78;21029;-57
2020/12/19 11:20:15;;;;;;;35.85;19.82;;;;;;;5.34;92.34;100663.52;1824156;78;21349;-57
2020/12/19 11:22:43;;;;;;;39.33;21.93;;;;;;;5.35;92.11;100652.35;1824068;78;21104;-57
2020/12/19 11:25:11;;;;;;;32.60;20.05;;;;;;;5.37;92.03;100646.80;1824116;78;21143;-57